createdAt,value
2023-03-26T00:00:38.297Z,8.68
2023-03-26T00:03:27.963Z,8.68
2023-03-26T00:06:09.812Z,8.67
2023-03-26T00:08:43.049Z,8.69
2023-03-26T00:11:24.637Z,8.70
2023-03-26T00:13:57.130Z,8.70
2023-03-26T00:16:32.569Z,8.67
2023-03-26T00:19:02.280Z,8.63
2023-03-26T00:21:31.662Z,8.63
2023-03-26T00:24:05.156Z,8.63
2023-03-26T00:26:36.411Z,8.62
2023-03-26T00:29:07.228Z,8.61
2023-03-26T00:31:46.788Z,8.61
2023-03-26T00:34:18.641Z,8.58
2023-03-26T00:36:55.409Z,8.55
2023-03-26T00:39:25.848Z,8.54
2023-03-26T00:43:16.325Z,8.53
2023-03-26T00:46:34.577Z,8.54
2023-03-26T00:49:55.963Z,8.51
2023-03-26T00:52:29.638Z,8.50
2023-03-26T00:54:58.333Z,8.47
2023-03-26T00:57:35.931Z,8.46
2023-03-26T01:00:16.939Z,8.46
2023-03-26T01:02:45.379Z,8.44
2023-03-26T01:05:35.557Z,8.45
2023-03-26T01:08:30.853Z,8.46
2023-03-26T01:41:53.134Z,8.48
2023-03-26T01:45:34.861Z,8.41
2023-03-26T01:48:37.854Z,8.35
2023-03-26T01:55:34.571Z,8.32
2023-03-26T01:59:34.664Z,8.30
2023-03-26T02:02:45.627Z,8.28
2023-03-26T02:07:02.298Z,8.26
2023-03-26T02:10:48.699Z,8.23
2023-03-26T02:14:27.494Z,8.15
2023-03-26T02:18:21.542Z,8.18
2023-03-26T02:22:03.538Z,8.18
2023-03-26T02:25:35.305Z,8.19
2023-03-26T02:28:36.180Z,8.15
2023-03-26T02:31:55.647Z,8.15
2023-03-26T02:35:10.225Z,8.09
2023-03-26T02:38:17.792Z,8.11
2023-03-26T02:41:26.890Z,8.11
2023-03-26T02:44:29.111Z,8.09
2023-03-26T02:47:30.571Z,8.09
2023-03-26T02:51:42.464Z,8.10
2023-03-26T02:55:13.814Z,8.00
2023-03-26T02:58:17.667Z,8.01
2023-03-26T03:01:14.513Z,8.05
2023-03-26T03:04:26.496Z,7.99
2023-03-26T03:07:39.022Z,8.00
2023-03-26T03:10:13.954Z,8.03
2023-03-26T03:13:07.940Z,8.03
2023-03-26T03:15:36.436Z,8.04
2023-03-26T03:18:05.293Z,8.07
2023-03-26T03:20:36.062Z,8.09
2023-03-26T03:23:04.588Z,8.10
2023-03-26T03:25:34.342Z,8.11
2023-03-26T03:28:03.502Z,8.08
2023-03-26T03:30:31.961Z,8.06
2023-03-26T03:33:22.428Z,8.03
2023-03-26T03:35:51.993Z,8.01
2023-03-26T03:38:27.984Z,8.00
2023-03-26T03:40:57.140Z,7.99
2023-03-26T03:43:34.861Z,7.91
2023-03-26T03:46:29.633Z,7.86
2023-03-26T03:49:00.666Z,7.86
2023-03-26T03:51:53.325Z,7.85
2023-03-26T03:54:36.129Z,7.83
2023-03-26T04:30:20.810Z,7.85
2023-03-26T04:33:04.125Z,7.74
2023-03-26T04:35:38.000Z,7.73
2023-03-26T04:38:10.354Z,7.75
2023-03-26T04:40:42.612Z,7.70
2023-03-26T04:43:27.621Z,7.73
2023-03-26T04:46:14.976Z,7.72
2023-03-26T04:48:54.469Z,7.74
2023-03-26T04:51:27.273Z,7.73
2023-03-26T04:54:00.167Z,7.71
2023-03-26T04:56:54.119Z,7.66
2023-03-26T04:59:34.682Z,7.69
2023-03-26T05:02:06.214Z,7.67
2023-03-26T05:04:40.435Z,7.59
2023-03-26T05:07:21.104Z,7.56
2023-03-26T05:10:29.902Z,7.59
2023-03-26T05:13:51.500Z,7.58
2023-03-26T05:16:50.859Z,7.60
2023-03-26T05:20:18.412Z,7.61
2023-03-26T05:23:46.632Z,7.60
2023-03-26T05:26:21.493Z,7.62
2023-03-26T05:28:50.079Z,7.65
2023-03-26T05:31:42.634Z,7.65
2023-03-26T05:34:11.658Z,7.65
2023-03-26T05:36:42.638Z,7.63
2023-03-26T05:39:27.096Z,7.65
2023-03-26T05:42:28.106Z,7.67
2023-03-26T05:45:14.221Z,7.76
2023-03-26T05:47:45.799Z,7.80
2023-03-26T05:50:15.437Z,7.83
2023-03-26T05:52:44.884Z,7.85
2023-03-26T05:55:33.559Z,7.88
2023-03-26T05:58:38.127Z,7.91
2023-03-26T06:04:32.082Z,7.95
2023-03-26T06:14:54.274Z,8.06
2023-03-26T06:17:41.339Z,8.03
2023-03-26T06:20:20.352Z,8.06
2023-03-26T06:22:51.264Z,8.07
2023-03-26T06:25:40.950Z,8.08
2023-03-26T06:28:23.186Z,8.13
2023-03-26T06:32:16.366Z,8.14
2023-03-26T07:05:18.390Z,8.46
2023-03-26T07:08:12.220Z,8.52
2023-03-26T07:10:59.256Z,8.57
2023-03-26T07:13:49.960Z,8.56
2023-03-26T07:16:48.279Z,8.56
2023-03-26T07:19:35.813Z,8.59
2023-03-26T07:22:04.856Z,8.55
2023-03-26T07:24:55.332Z,8.51
2023-03-26T07:28:02.930Z,8.51
2023-03-26T07:31:23.429Z,8.62
2023-03-26T07:34:39.844Z,8.84
2023-03-26T07:38:11.802Z,9.00
2023-03-26T07:41:17.018Z,8.95
2023-03-26T07:44:28.877Z,8.91
2023-03-26T07:47:35.489Z,8.85
2023-03-26T07:50:25.715Z,8.78
2023-03-26T07:53:00.372Z,8.75
2023-03-26T07:56:14.268Z,8.64
2023-03-26T07:58:58.480Z,8.60
2023-03-26T08:01:52.684Z,8.59
2023-03-26T08:05:05.273Z,8.50
2023-03-26T08:08:07.086Z,8.37
2023-03-26T08:10:43.661Z,8.31
2023-03-26T08:13:49.987Z,8.31
2023-03-26T08:16:32.452Z,8.30
2023-03-26T08:19:46.680Z,8.35
2023-03-26T08:30:03.136Z,8.41
2023-03-26T08:32:34.032Z,8.41
2023-03-26T08:35:05.947Z,8.35
2023-03-26T08:37:35.355Z,8.33
2023-03-26T08:44:41.719Z,8.09
2023-03-26T08:48:19.483Z,7.98
2023-03-26T08:51:35.156Z,7.79
2023-03-26T08:54:32.445Z,7.68
2023-03-26T08:57:27.938Z,7.61
2023-03-26T09:00:17.314Z,7.51
2023-03-26T09:03:08.362Z,7.30
2023-03-26T09:05:58.376Z,7.21
2023-03-26T09:08:53.955Z,7.08
2023-03-26T09:11:29.205Z,7.16
2023-03-26T09:14:13.238Z,7.22
2023-03-26T09:17:20.130Z,7.33
2023-03-26T09:20:00.734Z,7.43
2023-03-26T09:23:08.510Z,7.54
2023-03-26T09:26:04.932Z,7.68
2023-03-26T09:28:59.838Z,7.97
2023-03-26T09:32:02.777Z,8.17
2023-03-26T09:34:52.423Z,8.28
2023-03-26T09:38:01.939Z,8.55
2023-03-26T09:40:53.830Z,8.73
2023-03-26T09:44:06.597Z,8.78
2023-03-26T09:46:43.044Z,8.86
2023-03-26T09:49:25.406Z,9.03
2023-03-26T10:20:46.363Z,10.24
2023-03-26T11:01:04.792Z,11.06
2023-03-26T11:03:54.436Z,10.89
2023-03-26T11:06:52.894Z,10.77
2023-03-26T11:10:31.201Z,10.57
2023-03-26T11:13:19.806Z,10.46
2023-03-26T11:16:33.821Z,10.36
2023-03-26T11:19:03.799Z,10.29
2023-03-26T11:21:48.269Z,10.30
2023-03-26T11:24:33.714Z,10.23
2023-03-26T11:27:15.984Z,10.19
2023-03-26T11:30:20.496Z,10.14
2023-03-26T11:32:54.653Z,10.19
2023-03-26T11:35:40.336Z,10.24
2023-03-26T11:38:26.881Z,10.25
2023-03-26T11:41:23.017Z,10.19
2023-03-26T11:44:15.331Z,10.17
2023-03-26T11:46:46.528Z,10.22
2023-03-26T11:49:18.852Z,10.23
2023-03-26T11:51:48.827Z,10.27
2023-03-26T11:54:18.869Z,10.29
2023-03-26T11:57:12.557Z,10.25
2023-03-26T12:04:20.175Z,10.21
2023-03-26T12:07:07.717Z,10.18
2023-03-26T12:09:49.516Z,10.25
2023-03-26T12:12:20.434Z,10.29
2023-03-26T12:14:48.832Z,10.38
2023-03-26T12:17:40.372Z,10.52
2023-03-26T12:20:38.839Z,10.72
2023-03-26T12:23:39.155Z,10.77
2023-03-26T12:26:40.139Z,10.83
2023-03-26T12:29:28.510Z,10.94
2023-03-26T12:32:05.473Z,10.97
2023-03-26T12:34:54.391Z,10.98
2023-03-26T12:37:54.652Z,10.90
2023-03-26T12:40:38.290Z,10.83
2023-03-26T12:44:53.414Z,10.75
2023-03-26T12:47:57.602Z,10.63
2023-03-26T12:49:24.965Z,10.55
2023-03-26T12:52:10.761Z,10.43
2023-03-26T12:55:12.151Z,10.39
2023-03-26T12:58:16.212Z,10.38
2023-03-26T13:00:57.399Z,10.41
2023-03-26T13:03:57.216Z,10.42
2023-03-26T13:06:59.588Z,10.44
2023-03-26T13:26:40.454Z,10.14
2023-03-26T13:29:11.728Z,10.13
2023-03-26T13:31:55.005Z,10.08
2023-03-26T13:35:10.341Z,10.08
2023-03-26T13:38:00.624Z,10.11
2023-03-26T13:40:48.400Z,10.11
2023-03-26T13:43:48.762Z,10.09
2023-03-26T13:46:37.020Z,10.11
2023-03-26T13:49:16.959Z,10.16
2023-03-26T13:51:58.910Z,10.25
2023-03-26T13:54:40.248Z,10.32
2023-03-26T13:57:33.375Z,10.37
2023-03-26T14:00:18.532Z,10.43
2023-03-26T14:03:16.615Z,10.48
2023-03-26T14:05:52.590Z,10.54
2023-03-26T14:08:40.706Z,10.55
2023-03-26T14:24:02.526Z,10.57
2023-03-26T14:31:42.280Z,10.59
2023-03-26T14:34:31.138Z,10.60
2023-03-26T14:37:27.249Z,10.61
2023-03-26T14:40:19.022Z,10.65
2023-03-26T14:50:46.930Z,10.79
2023-03-26T14:53:28.804Z,10.79
2023-03-26T14:56:22.180Z,10.78
2023-03-26T14:59:11.604Z,10.77
2023-03-26T15:02:07.116Z,10.76
2023-03-26T15:04:54.163Z,10.75
2023-03-26T15:07:41.869Z,10.73
2023-03-26T15:10:44.232Z,10.73
2023-03-26T15:13:55.427Z,10.72
2023-03-26T15:16:38.743Z,10.72
2023-03-26T15:19:36.886Z,10.72
2023-03-26T15:41:01.517Z,10.77
2023-03-26T15:44:27.772Z,10.71
2023-03-26T16:09:52.394Z,10.63
2023-03-26T16:12:41.575Z,10.63
2023-03-26T17:00:06.435Z,10.45
2023-03-26T17:03:15.774Z,10.47
2023-03-26T17:05:59.287Z,10.46
2023-03-26T17:09:23.928Z,10.45
2023-03-26T17:12:08.062Z,10.45
2023-03-26T17:14:55.745Z,10.43
2023-03-26T17:17:31.950Z,10.41
2023-03-26T17:20:33.181Z,10.38
2023-03-26T17:30:55.442Z,10.30
2023-03-26T17:33:39.001Z,10.26
2023-03-26T17:36:21.378Z,10.24
2023-03-26T17:38:49.429Z,10.22
2023-03-26T17:41:54.532Z,10.21
2023-03-26T17:45:01.317Z,10.19
2023-03-26T17:47:39.609Z,10.16
2023-03-26T17:50:16.641Z,10.13
2023-03-26T17:53:12.962Z,10.09
2023-03-26T17:55:51.120Z,10.04
2023-03-26T17:58:29.682Z,10.00
2023-03-26T18:01:23.018Z,9.98
2023-03-26T18:04:00.131Z,9.96
2023-03-26T18:06:45.077Z,9.93
2023-03-26T18:09:41.979Z,9.91
2023-03-26T18:12:21.678Z,9.87
2023-03-26T18:15:24.175Z,9.82
2023-03-26T18:18:01.597Z,9.77
2023-03-26T18:20:36.874Z,9.74
2023-03-26T18:23:37.842Z,9.71
2023-03-26T18:26:38.699Z,9.67
2023-03-26T18:29:33.824Z,9.64
2023-03-26T18:32:13.058Z,9.60
2023-03-26T18:34:50.176Z,9.58
2023-03-26T18:37:27.629Z,9.55
2023-03-26T18:40:12.728Z,9.51
2023-03-26T18:42:45.847Z,9.51
2023-03-26T18:45:23.391Z,9.48
2023-03-26T18:48:32.566Z,9.43
2023-03-26T18:51:08.661Z,9.32
2023-03-26T18:54:06.892Z,9.25
2023-03-26T18:56:59.186Z,9.19
2023-03-26T18:59:50.719Z,9.16
2023-03-26T19:02:22.310Z,9.13
2023-03-26T19:04:54.419Z,9.12
2023-03-26T19:07:26.627Z,9.10
2023-03-26T19:10:22.351Z,9.09
2023-03-26T19:13:00.304Z,9.10
2023-03-26T19:15:44.594Z,9.09
2023-03-26T19:18:27.305Z,9.06
2023-03-26T19:34:53.518Z,8.90
2023-03-26T19:37:23.886Z,8.92
2023-03-26T19:40:01.643Z,8.92
2023-03-26T19:42:43.918Z,8.90
2023-03-26T19:45:29.342Z,8.85
2023-03-26T19:48:13.857Z,8.80
2023-03-26T19:51:06.275Z,8.73
2023-03-26T19:53:50.794Z,8.71
2023-03-26T19:56:39.707Z,8.58
2023-03-26T20:00:19.208Z,8.46
2023-03-26T20:02:49.184Z,8.32
2023-03-26T20:05:26.798Z,8.23
2023-03-26T20:07:59.806Z,8.16
2023-03-26T20:10:41.068Z,8.11
2023-03-26T20:13:20.975Z,8.04
2023-03-26T20:16:15.989Z,7.98
2023-03-26T20:18:44.504Z,7.89
2023-03-26T20:21:19.701Z,7.85
2023-03-26T20:23:48.244Z,7.80
2023-03-26T20:26:18.664Z,7.77
2023-03-26T20:28:53.419Z,7.73
2023-03-26T20:31:28.903Z,7.69
2023-03-26T20:33:57.935Z,7.65
2023-03-26T20:36:35.989Z,7.61
2023-03-26T20:39:07.873Z,7.57
2023-03-26T20:41:42.978Z,7.55
2023-03-26T20:44:17.754Z,7.55
2023-03-26T20:46:48.369Z,7.54
2023-03-26T20:49:17.943Z,7.53
2023-03-26T20:51:47.022Z,7.52
2023-03-26T20:54:18.221Z,7.52
2023-03-26T20:56:49.595Z,7.52
2023-03-26T20:59:22.321Z,7.54
2023-03-26T21:01:51.263Z,7.58
2023-03-26T21:04:21.502Z,7.61
2023-03-26T21:06:50.110Z,7.63
2023-03-26T21:09:24.172Z,7.66
2023-03-26T21:12:01.838Z,7.67
2023-03-26T21:14:33.649Z,7.66
2023-03-26T21:17:02.416Z,7.66
2023-03-26T21:19:30.951Z,7.68
2023-03-26T21:22:08.029Z,7.67
2023-03-26T21:25:03.211Z,7.65
2023-03-26T21:27:57.295Z,7.64
2023-03-26T21:30:27.943Z,7.64
2023-03-26T21:32:56.311Z,7.64
2023-03-26T21:35:25.089Z,7.64
2023-03-26T21:37:54.270Z,7.62
2023-03-26T21:40:22.858Z,7.62
2023-03-26T21:42:54.868Z,7.62
2023-03-26T21:45:23.532Z,7.63
2023-03-26T21:47:54.814Z,7.62
2023-03-26T21:50:24.188Z,7.62
2023-03-26T21:52:52.801Z,7.63
2023-03-26T21:55:23.183Z,7.64
2023-03-26T21:58:11.169Z,7.65
2023-03-26T22:00:54.186Z,7.67
2023-03-26T22:03:34.701Z,7.67
2023-03-26T22:06:13.621Z,7.66
2023-03-26T22:08:43.456Z,7.66
2023-03-26T22:11:14.203Z,7.67
2023-03-26T22:13:42.956Z,7.69
2023-03-26T22:16:11.756Z,7.67
2023-03-26T22:18:40.045Z,7.66
2023-03-26T22:21:08.232Z,7.60
2023-03-26T22:23:40.197Z,7.57
2023-03-26T22:26:08.351Z,7.54
2023-03-26T22:28:36.778Z,7.51
2023-03-26T22:31:09.341Z,7.48
2023-03-26T22:33:38.363Z,7.46
2023-03-26T22:36:23.107Z,7.41
2023-03-26T22:38:55.076Z,7.37
2023-03-26T22:41:23.668Z,7.36
2023-03-26T22:43:55.331Z,7.36
2023-03-26T22:46:24.867Z,7.36
2023-03-26T22:48:53.435Z,7.37
2023-03-26T22:51:21.925Z,7.38
2023-03-26T22:53:50.918Z,7.39
2023-03-26T22:56:23.836Z,7.40
2023-03-26T22:58:52.281Z,7.40
2023-03-26T23:01:25.024Z,7.41
2023-03-26T23:03:55.259Z,7.40
2023-03-26T23:06:23.835Z,7.40
2023-03-26T23:08:52.377Z,7.41
2023-03-26T23:11:22.220Z,7.41
2023-03-26T23:13:51.387Z,7.41
2023-03-26T23:16:21.583Z,7.41
2023-03-26T23:18:50.319Z,7.43
2023-03-26T23:21:22.359Z,7.43
2023-03-26T23:23:54.890Z,7.44
2023-03-26T23:26:25.402Z,7.44
2023-03-26T23:28:54.185Z,7.43
2023-03-26T23:31:28.480Z,7.43
2023-03-26T23:33:57.961Z,7.42
2023-03-26T23:36:26.430Z,7.42
2023-03-26T23:38:55.481Z,7.41
2023-03-26T23:41:29.360Z,7.41
2023-03-26T23:43:57.669Z,7.42
2023-03-26T23:46:30.965Z,7.46
2023-03-26T23:49:02.462Z,7.49
2023-03-26T23:51:31.647Z,7.48
2023-03-26T23:54:05.087Z,7.47
2023-03-26T23:56:33.179Z,7.47
2023-03-26T23:59:01.453Z,7.45
